sensor_id;sensor_type;location;lat;lon;timestamp;temperature;humidity
8269;DHT22;4174;48.304;16.364;2023-04-03T00:04:30;7.10;99.90
8269;DHT22;4174;48.304;16.364;2023-04-03T00:10:34;7.00;99.90
8269;DHT22;4174;48.304;16.364;2023-04-03T00:16:37;7.00;99.90
8269;DHT22;4174;48.304;16.364;2023-04-03T00:22:41;6.90;99.90
8269;DHT22;4174;48.304;16.364;2023-04-03T00:28:45;6.80;99.90
8269;DHT22;4174;48.304;16.364;2023-04-03T00:34:48;6.80;99.90
8269;DHT22;4174;48.304;16.364;2023-04-03T00:40:52;6.80;99.90
8269;DHT22;4174;48.304;16.364;2023-04-03T00:46:55;6.70;99.90
8269;DHT22;4174;48.304;16.364;2023-04-03T00:52:58;6.70;99.90
8269;DHT22;4174;48.304;16.364;2023-04-03T00:59:04;6.50;99.90
8269;DHT22;4174;48.304;16.364;2023-04-03T01:05:06;6.50;99.90
8269;DHT22;4174;48.304;16.364;2023-04-03T01:11:09;6.80;99.90
8269;DHT22;4174;48.304;16.364;2023-04-03T01:17:31;6.80;99.90
8269;DHT22;4174;48.304;16.364;2023-04-03T01:24:05;6.70;99.90
8269;DHT22;4174;48.304;16.364;2023-04-03T01:30:11;6.80;99.90
8269;DHT22;4174;48.304;16.364;2023-04-03T01:36:17;6.90;99.90
8269;DHT22;4174;48.304;16.364;2023-04-03T01:42:19;6.80;99.90
8269;DHT22;4174;48.304;16.364;2023-04-03T01:48:23;6.80;99.90
8269;DHT22;4174;48.304;16.364;2023-04-03T01:54:26;7.00;99.90
8269;DHT22;4174;48.304;16.364;2023-04-03T02:00:31;7.00;99.90
8269;DHT22;4174;48.304;16.364;2023-04-03T02:06:34;7.00;99.90
8269;DHT22;4174;48.304;16.364;2023-04-03T02:12:38;7.10;99.90
8269;DHT22;4174;48.304;16.364;2023-04-03T02:18:41;7.10;99.90
8269;DHT22;4174;48.304;16.364;2023-04-03T02:24:44;7.10;99.90
8269;DHT22;4174;48.304;16.364;2023-04-03T02:30:48;7.10;99.90
8269;DHT22;4174;48.304;16.364;2023-04-03T02:36:52;7.30;99.90
8269;DHT22;4174;48.304;16.364;2023-04-03T02:42:55;7.30;99.90
8269;DHT22;4174;48.304;16.364;2023-04-03T02:48:59;7.10;99.90
8269;DHT22;4174;48.304;16.364;2023-04-03T02:55:05;7.20;99.90
8269;DHT22;4174;48.304;16.364;2023-04-03T03:01:10;7.20;99.90
8269;DHT22;4174;48.304;16.364;2023-04-03T03:07:13;7.20;99.90
8269;DHT22;4174;48.304;16.364;2023-04-03T03:13:17;7.20;99.90
8269;DHT22;4174;48.304;16.364;2023-04-03T03:19:21;7.00;99.90
8269;DHT22;4174;48.304;16.364;2023-04-03T03:25:24;7.00;99.90
8269;DHT22;4174;48.304;16.364;2023-04-03T03:31:29;7.10;99.90
8269;DHT22;4174;48.304;16.364;2023-04-03T03:37:33;7.20;99.90
8269;DHT22;4174;48.304;16.364;2023-04-03T03:43:36;7.30;99.90
8269;DHT22;4174;48.304;16.364;2023-04-03T03:49:40;7.10;99.90
8269;DHT22;4174;48.304;16.364;2023-04-03T03:55:44;7.10;99.90
8269;DHT22;4174;48.304;16.364;2023-04-03T04:01:48;7.10;99.90
8269;DHT22;4174;48.304;16.364;2023-04-03T04:07:53;7.20;99.90
8269;DHT22;4174;48.304;16.364;2023-04-03T04:13:57;7.20;99.90
8269;DHT22;4174;48.304;16.364;2023-04-03T04:20:01;7.20;99.90
8269;DHT22;4174;48.304;16.364;2023-04-03T04:26:03;7.00;99.90
8269;DHT22;4174;48.304;16.364;2023-04-03T04:32:06;7.00;99.90
8269;DHT22;4174;48.304;16.364;2023-04-03T04:38:11;7.00;99.90
8269;DHT22;4174;48.304;16.364;2023-04-03T04:44:15;6.90;99.90
8269;DHT22;4174;48.304;16.364;2023-04-03T04:50:18;6.70;99.90
8269;DHT22;4174;48.304;16.364;2023-04-03T04:56:22;6.80;99.90
8269;DHT22;4174;48.304;16.364;2023-04-03T05:02:26;6.60;99.90
8269;DHT22;4174;48.304;16.364;2023-04-03T05:08:29;6.60;99.90
8269;DHT22;4174;48.304;16.364;2023-04-03T05:14:33;6.70;99.90
8269;DHT22;4174;48.304;16.364;2023-04-03T05:20:36;6.70;99.90
8269;DHT22;4174;48.304;16.364;2023-04-03T05:26:40;6.80;99.90
8269;DHT22;4174;48.304;16.364;2023-04-03T05:32:42;7.00;99.90
8269;DHT22;4174;48.304;16.364;2023-04-03T05:38:46;7.00;99.90
8269;DHT22;4174;48.304;16.364;2023-04-03T05:44:49;6.90;99.90
8269;DHT22;4174;48.304;16.364;2023-04-03T05:50:52;6.90;99.90
8269;DHT22;4174;48.304;16.364;2023-04-03T05:56:56;6.80;99.90
8269;DHT22;4174;48.304;16.364;2023-04-03T06:02:59;7.10;99.90
8269;DHT22;4174;48.304;16.364;2023-04-03T06:09:03;7.30;99.90
8269;DHT22;4174;48.304;16.364;2023-04-03T06:15:08;7.20;99.90
8269;DHT22;4174;48.304;16.364;2023-04-03T06:21:12;7.20;99.90
8269;DHT22;4174;48.304;16.364;2023-04-03T06:27:16;7.30;99.90
8269;DHT22;4174;48.304;16.364;2023-04-03T06:33:20;6.90;99.90
8269;DHT22;4174;48.304;16.364;2023-04-03T06:39:24;6.90;99.90
8269;DHT22;4174;48.304;16.364;2023-04-03T06:45:28;6.80;99.90
8269;DHT22;4174;48.304;16.364;2023-04-03T06:51:31;6.80;99.90
8269;DHT22;4174;48.304;16.364;2023-04-03T06:57:35;6.80;99.90
8269;DHT22;4174;48.304;16.364;2023-04-03T07:03:38;6.90;99.90
8269;DHT22;4174;48.304;16.364;2023-04-03T07:09:41;6.90;99.90
8269;DHT22;4174;48.304;16.364;2023-04-03T07:15:46;7.20;99.90
8269;DHT22;4174;48.304;16.364;2023-04-03T07:21:49;7.10;99.90
8269;DHT22;4174;48.304;16.364;2023-04-03T07:27:53;7.30;99.90
8269;DHT22;4174;48.304;16.364;2023-04-03T07:33:56;7.30;99.90
8269;DHT22;4174;48.304;16.364;2023-04-03T07:39:59;7.60;99.90
8269;DHT22;4174;48.304;16.364;2023-04-03T07:46:04;8.30;99.90
8269;DHT22;4174;48.304;16.364;2023-04-03T07:52:06;8.90;99.90
8269;DHT22;4174;48.304;16.364;2023-04-03T07:58:10;10.70;99.60
8269;DHT22;4174;48.304;16.364;2023-04-03T08:04:13;10.70;99.60
8269;DHT22;4174;48.304;16.364;2023-04-03T08:10:17;13.80;87.30
8269;DHT22;4174;48.304;16.364;2023-04-03T08:16:21;13.70;87.10
8269;DHT22;4174;48.304;16.364;2023-04-03T08:22:23;14.70;82.10
8269;DHT22;4174;48.304;16.364;2023-04-03T08:28:27;16.20;75.10
8269;DHT22;4174;48.304;16.364;2023-04-03T08:34:30;16.00;70.40
8269;DHT22;4174;48.304;16.364;2023-04-03T08:40:34;15.60;65.00
8269;DHT22;4174;48.304;16.364;2023-04-03T08:46:47;15.60;65.00
8269;DHT22;4174;48.304;16.364;2023-04-03T08:52:52;13.80;63.80
8269;DHT22;4174;48.304;16.364;2023-04-03T08:58:57;12.30;65.80
8269;DHT22;4174;48.304;16.364;2023-04-03T09:05:01;10.80;71.00
8269;DHT22;4174;48.304;16.364;2023-04-03T09:11:06;11.60;71.80
8269;DHT22;4174;48.304;16.364;2023-04-03T09:17:14;11.60;71.70
8269;DHT22;4174;48.304;16.364;2023-04-03T09:23:36;11.60;67.50
8269;DHT22;4174;48.304;16.364;2023-04-03T09:29:40;11.10;71.70
8269;DHT22;4174;48.304;16.364;2023-04-03T09:35:43;11.10;71.70
8269;DHT22;4174;48.304;16.364;2023-04-03T09:41:56;10.90;69.50
8269;DHT22;4174;48.304;16.364;2023-04-03T09:48:08;10.60;73.40
8269;DHT22;4174;48.304;16.364;2023-04-03T10:00:37;9.10;73.40
8269;DHT22;4174;48.304;16.364;2023-04-03T10:06:48;9.00;73.30
8269;DHT22;4174;48.304;16.364;2023-04-03T10:13:03;9.60;74.40
8269;DHT22;4174;48.304;16.364;2023-04-03T10:25:30;9.60;72.70
8269;DHT22;4174;48.304;16.364;2023-04-03T10:38:34;10.70;68.60
8269;DHT22;4174;48.304;16.364;2023-04-03T10:45:01;11.50;66.60
8269;DHT22;4174;48.304;16.364;2023-04-03T10:51:24;11.40;56.10
8269;DHT22;4174;48.304;16.364;2023-04-03T10:57:40;11.20;62.70
8269;DHT22;4174;48.304;16.364;2023-04-03T11:03:45;10.50;63.00
8269;DHT22;4174;48.304;16.364;2023-04-03T11:09:52;9.80;63.70
8269;DHT22;4174;48.304;16.364;2023-04-03T11:15:53;9.30;68.20
8269;DHT22;4174;48.304;16.364;2023-04-03T11:22:00;9.90;66.50
8269;DHT22;4174;48.304;16.364;2023-04-03T11:28:01;12.20;68.80
8269;DHT22;4174;48.304;16.364;2023-04-03T11:34:08;12.30;57.10
8269;DHT22;4174;48.304;16.364;2023-04-03T11:40:26;11.60;57.10
8269;DHT22;4174;48.304;16.364;2023-04-03T11:46:48;11.60;57.10
8269;DHT22;4174;48.304;16.364;2023-04-03T11:52:58;11.00;58.00
8269;DHT22;4174;48.304;16.364;2023-04-03T11:59:22;10.30;58.20
8269;DHT22;4174;48.304;16.364;2023-04-03T12:05:26;10.30;60.50
8269;DHT22;4174;48.304;16.364;2023-04-03T12:11:30;9.70;58.80
8269;DHT22;4174;48.304;16.364;2023-04-03T12:17:33;10.00;57.40
8269;DHT22;4174;48.304;16.364;2023-04-03T12:23:36;9.90;56.20
8269;DHT22;4174;48.304;16.364;2023-04-03T12:29:42;10.20;57.30
8269;DHT22;4174;48.304;16.364;2023-04-03T12:35:58;9.90;61.10
8269;DHT22;4174;48.304;16.364;2023-04-03T12:42:05;9.80;57.50
8269;DHT22;4174;48.304;16.364;2023-04-03T12:48:25;10.10;57.40
8269;DHT22;4174;48.304;16.364;2023-04-03T12:54:32;10.10;57.40
8269;DHT22;4174;48.304;16.364;2023-04-03T13:00:41;9.00;56.20
8269;DHT22;4174;48.304;16.364;2023-04-03T13:06:44;9.10;56.20
8269;DHT22;4174;48.304;16.364;2023-04-03T13:12:51;9.00;57.30
8269;DHT22;4174;48.304;16.364;2023-04-03T13:18:53;9.50;59.40
8269;DHT22;4174;48.304;16.364;2023-04-03T13:24:56;9.60;56.00
8269;DHT22;4174;48.304;16.364;2023-04-03T13:31:06;9.40;57.60
8269;DHT22;4174;48.304;16.364;2023-04-03T13:37:11;9.60;57.70
8269;DHT22;4174;48.304;16.364;2023-04-03T13:43:17;9.80;58.50
8269;DHT22;4174;48.304;16.364;2023-04-03T13:49:22;9.40;55.10
8269;DHT22;4174;48.304;16.364;2023-04-03T13:55:28;9.60;56.40
8269;DHT22;4174;48.304;16.364;2023-04-03T14:01:40;9.60;56.90
8269;DHT22;4174;48.304;16.364;2023-04-03T14:07:40;9.50;57.40
8269;DHT22;4174;48.304;16.364;2023-04-03T14:13:45;9.00;56.10
8269;DHT22;4174;48.304;16.364;2023-04-03T14:19:48;9.30;58.10
8269;DHT22;4174;48.304;16.364;2023-04-03T14:25:50;9.60;58.60
8269;DHT22;4174;48.304;16.364;2023-04-03T14:31:53;9.60;59.40
8269;DHT22;4174;48.304;16.364;2023-04-03T14:37:57;9.80;57.20
8269;DHT22;4174;48.304;16.364;2023-04-03T14:44:00;9.60;57.20
8269;DHT22;4174;48.304;16.364;2023-04-03T14:50:06;9.70;57.90
8269;DHT22;4174;48.304;16.364;2023-04-03T14:56:14;9.40;56.40
8269;DHT22;4174;48.304;16.364;2023-04-03T15:02:32;9.30;56.40
8269;DHT22;4174;48.304;16.364;2023-04-03T15:08:35;9.70;55.30
8269;DHT22;4174;48.304;16.364;2023-04-03T15:14:40;9.40;56.00
8269;DHT22;4174;48.304;16.364;2023-04-03T15:20:44;9.20;54.50
8269;DHT22;4174;48.304;16.364;2023-04-03T15:26:46;9.10;56.90
8269;DHT22;4174;48.304;16.364;2023-04-03T15:32:50;8.50;57.30
8269;DHT22;4174;48.304;16.364;2023-04-03T15:38:53;8.50;56.60
8269;DHT22;4174;48.304;16.364;2023-04-03T15:44:58;8.30;56.10
8269;DHT22;4174;48.304;16.364;2023-04-03T15:51:01;8.00;57.80
8269;DHT22;4174;48.304;16.364;2023-04-03T15:57:05;7.70;58.10
8269;DHT22;4174;48.304;16.364;2023-04-03T16:03:12;7.60;59.00
8269;DHT22;4174;48.304;16.364;2023-04-03T16:09:14;8.00;57.70
8269;DHT22;4174;48.304;16.364;2023-04-03T16:15:18;7.90;57.90
8269;DHT22;4174;48.304;16.364;2023-04-03T16:21:21;7.90;60.10
8269;DHT22;4174;48.304;16.364;2023-04-03T16:27:25;7.80;59.60
8269;DHT22;4174;48.304;16.364;2023-04-03T16:33:28;7.80;58.40
8269;DHT22;4174;48.304;16.364;2023-04-03T16:39:30;7.70;58.40
8269;DHT22;4174;48.304;16.364;2023-04-03T16:45:34;7.50;57.90
8269;DHT22;4174;48.304;16.364;2023-04-03T16:51:38;7.50;58.00
8269;DHT22;4174;48.304;16.364;2023-04-03T16:57:42;7.60;59.10
8269;DHT22;4174;48.304;16.364;2023-04-03T17:03:47;7.40;56.60
8269;DHT22;4174;48.304;16.364;2023-04-03T17:09:50;7.40;56.50
8269;DHT22;4174;48.304;16.364;2023-04-03T17:15:53;7.30;57.00
8269;DHT22;4174;48.304;16.364;2023-04-03T17:21:56;7.40;61.60
8269;DHT22;4174;48.304;16.364;2023-04-03T17:27:59;7.30;60.80
8269;DHT22;4174;48.304;16.364;2023-04-03T17:34:02;7.10;58.70
8269;DHT22;4174;48.304;16.364;2023-04-03T17:40:07;6.90;58.90
8269;DHT22;4174;48.304;16.364;2023-04-03T17:46:11;7.00;59.40
8269;DHT22;4174;48.304;16.364;2023-04-03T17:52:15;6.90;59.10
8269;DHT22;4174;48.304;16.364;2023-04-03T17:58:19;6.80;59.00
8269;DHT22;4174;48.304;16.364;2023-04-03T18:04:23;6.70;58.80
8269;DHT22;4174;48.304;16.364;2023-04-03T18:10:27;6.70;58.80
8269;DHT22;4174;48.304;16.364;2023-04-03T18:16:30;6.60;59.30
8269;DHT22;4174;48.304;16.364;2023-04-03T18:22:32;6.60;60.00
8269;DHT22;4174;48.304;16.364;2023-04-03T18:28:36;6.30;59.00
8269;DHT22;4174;48.304;16.364;2023-04-03T18:34:39;6.30;59.10
8269;DHT22;4174;48.304;16.364;2023-04-03T18:40:43;6.40;60.20
8269;DHT22;4174;48.304;16.364;2023-04-03T18:46:47;6.40;59.70
8269;DHT22;4174;48.304;16.364;2023-04-03T18:52:50;6.40;59.70
8269;DHT22;4174;48.304;16.364;2023-04-03T18:58:54;6.30;62.00
8269;DHT22;4174;48.304;16.364;2023-04-03T19:04:58;6.30;62.00
8269;DHT22;4174;48.304;16.364;2023-04-03T19:11:02;6.10;62.60
8269;DHT22;4174;48.304;16.364;2023-04-03T19:17:05;6.10;62.60
8269;DHT22;4174;48.304;16.364;2023-04-03T19:23:09;6.00;62.50
8269;DHT22;4174;48.304;16.364;2023-04-03T19:29:14;6.10;63.00
8269;DHT22;4174;48.304;16.364;2023-04-03T19:35:17;6.10;62.90
8269;DHT22;4174;48.304;16.364;2023-04-03T19:41:22;5.80;60.80
8269;DHT22;4174;48.304;16.364;2023-04-03T19:47:24;5.80;60.90
8269;DHT22;4174;48.304;16.364;2023-04-03T19:53:27;6.10;62.20
8269;DHT22;4174;48.304;16.364;2023-04-03T19:59:30;6.30;62.20
8269;DHT22;4174;48.304;16.364;2023-04-03T20:05:33;6.20;59.90
8269;DHT22;4174;48.304;16.364;2023-04-03T20:11:37;6.20;60.60
8269;DHT22;4174;48.304;16.364;2023-04-03T20:17:41;6.10;61.10
8269;DHT22;4174;48.304;16.364;2023-04-03T20:23:44;6.20;64.60
8269;DHT22;4174;48.304;16.364;2023-04-03T20:29:48;6.40;61.70
8269;DHT22;4174;48.304;16.364;2023-04-03T20:35:51;6.30;61.60
8269;DHT22;4174;48.304;16.364;2023-04-03T20:41:55;6.20;61.40
8269;DHT22;4174;48.304;16.364;2023-04-03T20:47:58;6.20;62.40
8269;DHT22;4174;48.304;16.364;2023-04-03T20:54:01;6.20;62.50
8269;DHT22;4174;48.304;16.364;2023-04-03T21:00:05;6.10;61.60
8269;DHT22;4174;48.304;16.364;2023-04-03T21:24:55;5.90;61.20
8269;DHT22;4174;48.304;16.364;2023-04-03T21:30:58;6.00;62.80
8269;DHT22;4174;48.304;16.364;2023-04-03T21:37:02;5.80;64.30
8269;DHT22;4174;48.304;16.364;2023-04-03T21:43:06;5.80;65.70
8269;DHT22;4174;48.304;16.364;2023-04-03T21:49:09;5.80;65.70
8269;DHT22;4174;48.304;16.364;2023-04-03T21:55:13;5.50;62.80
8269;DHT22;4174;48.304;16.364;2023-04-03T22:01:16;5.50;64.90
8269;DHT22;4174;48.304;16.364;2023-04-03T22:07:21;5.20;64.60
8269;DHT22;4174;48.304;16.364;2023-04-03T22:13:24;5.10;64.50
8269;DHT22;4174;48.304;16.364;2023-04-03T22:19:28;5.00;66.50
8269;DHT22;4174;48.304;16.364;2023-04-03T22:25:31;5.00;69.40
8269;DHT22;4174;48.304;16.364;2023-04-03T22:31:34;4.80;70.50
8269;DHT22;4174;48.304;16.364;2023-04-03T22:37:37;4.80;67.70
8269;DHT22;4174;48.304;16.364;2023-04-03T22:43:41;4.70;70.00
8269;DHT22;4174;48.304;16.364;2023-04-03T22:49:44;4.60;69.60
8269;DHT22;4174;48.304;16.364;2023-04-03T22:55:56;4.40;68.90
8269;DHT22;4174;48.304;16.364;2023-04-03T23:01:59;4.10;69.50
8269;DHT22;4174;48.304;16.364;2023-04-03T23:08:02;4.10;70.40
8269;DHT22;4174;48.304;16.364;2023-04-03T23:14:07;3.90;70.10
8269;DHT22;4174;48.304;16.364;2023-04-03T23:24:18;3.80;70.60
8269;DHT22;4174;48.304;16.364;2023-04-03T23:30:26;3.90;69.70
8269;DHT22;4174;48.304;16.364;2023-04-03T23:36:31;3.80;71.50
8269;DHT22;4174;48.304;16.364;2023-04-03T23:42:38;3.70;73.00
8269;DHT22;4174;48.304;16.364;2023-04-03T23:48:43;3.70;73.00
8269;DHT22;4174;48.304;16.364;2023-04-03T23:54:50;3.70;71.40
